Time;durP1;ratioP1;P1;durP2;ratioP2;P2;SDS_P1;SDS_P2;PMS_P1;PMS_P2;Temp;Humidity;BMP_temperature;BMP_pressure;BME280_temperature;BME280_humidity;BME280_pressure;Samples;Min_cycle;Max_cycle;Signal;HPM_P1;HPM_P2
2022/05/10 00:02:14;;;;;;;8.50;4.35;;;17.40;94.80;;;;;;5045503;28;20087;-60
2022/05/10 00:04:41;;;;;;;7.18;4.13;;;17.40;95.20;;;;;;5028413;28;20045;-60
2022/05/10 00:07:07;;;;;;;8.65;4.72;;;17.40;94.90;;;;;;5046110;28;20099;-61
2022/05/10 00:09:34;;;;;;;8.13;4.07;;;17.30;94.80;;;;;;5046867;28;20049;-60
2022/05/10 00:12:01;;;;;;;6.75;4.00;;;17.40;94.90;;;;;;5045592;28;20147;-61
2022/05/10 00:14:28;;;;;;;7.68;4.40;;;17.40;94.80;;;;;;5046422;28;20504;-59
2022/05/10 00:16:54;;;;;;;8.43;4.18;;;17.40;95.10;;;;;;5046045;28;20057;-60
2022/05/10 00:19:22;;;;;;;6.25;4.00;;;17.30;94.90;;;;;;5029883;28;20041;-59
2022/05/10 00:21:49;;;;;;;9.85;4.38;;;17.40;94.90;;;;;;5049531;28;20048;-59
2022/05/10 00:24:16;;;;;;;7.65;4.47;;;17.30;94.90;;;;;;5048753;28;20080;-60
2022/05/10 00:26:43;;;;;;;8.07;4.40;;;17.30;95.00;;;;;;5049529;28;20458;-58
2022/05/10 00:29:10;;;;;;;8.75;4.03;;;17.30;95.00;;;;;;5049965;28;20135;-59
2022/05/10 00:31:36;;;;;;;7.78;4.30;;;17.30;95.10;;;;;;5049368;28;20461;-59
2022/05/10 00:34:03;;;;;;;6.95;4.63;;;17.30;94.90;;;;;;5050127;28;20524;-59
2022/05/10 00:36:30;;;;;;;9.15;4.65;;;17.30;94.90;;;;;;5048446;28;20052;-59
2022/05/10 00:38:57;;;;;;;12.52;4.85;;;17.30;94.90;;;;;;5048067;28;20128;-61
2022/05/10 00:41:28;;;;;;;7.63;4.38;;;17.30;94.90;;;;;;5048523;28;20461;-59
2022/05/10 00:44:08;;;;;;;8.15;4.57;;;17.30;95.10;;;;;;5048106;28;20084;-59
2022/05/10 00:46:38;;;;;;;7.93;4.28;;;17.30;95.40;;;;;;5032569;28;20103;-60
2022/05/10 00:49:37;;;;;;;10.88;4.47;;;17.20;95.10;;;;;;5049596;28;20106;-60
2022/05/10 00:52:08;;;;;;;6.90;4.40;;;17.30;95.40;;;;;;5043429;28;20164;-60
2022/05/10 00:55:05;;;;;;;15.23;4.28;;;17.30;95.10;;;;;;5047223;28;20510;-59
2022/05/10 00:57:41;;;;;;;13.13;4.53;;;17.30;95.40;;;;;;5044493;28;20087;-59
2022/05/10 01:00:14;;;;;;;8.25;4.85;;;17.30;95.20;;;;;;5031871;28;20102;-59
2022/05/10 01:02:47;;;;;;;6.17;3.57;;;17.30;94.90;;;;;;5048899;28;20092;-59
2022/05/10 01:05:16;;;;;;;9.05;3.63;;;17.30;95.20;;;;;;5048456;28;20297;-59
2022/05/10 01:07:58;;;;;;;5.45;3.80;;;17.30;95.10;;;;;;5049133;28;20089;-60
2022/05/10 01:10:42;;;;;;;11.95;3.33;;;17.30;95.10;;;;;;5033062;28;20079;-59
2022/05/10 01:13:23;;;;;;;7.35;3.60;;;17.30;95.30;;;;;;5042389;28;20128;-59
2022/05/10 01:16:05;;;;;;;8.23;3.65;;;17.20;95.30;;;;;;5047894;28;20069;-59
2022/05/10 01:18:32;;;;;;;12.02;4.72;;;17.20;95.40;;;;;;5047381;28;20114;-59
2022/05/10 01:21:26;;;;;;;7.60;3.75;;;17.20;95.00;;;;;;5048659;28;20103;-60
2022/05/10 01:23:56;;;;;;;;;;;17.20;95.30;;;;;;5049069;28;20124;-59
2022/05/10 01:26:53;;;;;;;4.75;3.30;;;17.20;95.50;;;;;;5048697;28;20390;-59
2022/05/10 01:29:27;;;;;;;8.13;4.07;;;17.20;95.30;;;;;;5042658;28;20045;-59
2022/05/10 01:34:41;;;;;;;7.28;4.30;;;17.20;95.00;;;;;;5033773;28;20055;-59
2022/05/10 01:37:10;;;;;;;9.10;3.70;;;17.20;95.00;;;;;;5047511;28;20384;-59
2022/05/10 01:39:44;;;;;;;9.57;4.05;;;17.20;95.10;;;;;;5047197;28;20124;-59
2022/05/10 01:42:50;;;;;;;11.25;3.88;;;17.20;95.40;;;;;;5047272;28;20128;-59
2022/05/10 01:45:27;;;;;;;8.70;4.15;;;17.20;95.80;;;;;;5038898;28;20076;-59
2022/05/10 01:47:59;;;;;;;7.32;4.13;;;17.20;95.60;;;;;;5030440;28;20124;-60
2022/05/10 01:50:46;;;;;;;9.43;3.92;;;17.10;95.60;;;;;;5046107;28;20127;-60
2022/05/10 01:53:21;;;;;;;7.18;4.35;;;17.10;96.00;;;;;;5047260;28;20767;-60
2022/05/10 01:55:52;;;;;;;10.45;4.60;;;17.10;95.90;;;;;;5047014;28;20099;-60
2022/05/10 01:58:26;;;;;;;9.20;4.25;;;17.10;96.00;;;;;;5047425;28;20071;-59
2022/05/10 02:01:22;;;;;;;9.00;4.47;;;17.00;96.20;;;;;;5047011;28;20037;-60
2022/05/10 02:04:06;;;;;;;8.05;4.05;;;17.00;96.50;;;;;;5046640;28;20131;-60
2022/05/10 02:06:49;;;;;;;12.40;4.10;;;17.00;96.30;;;;;;5042084;28;20550;-60
2022/05/10 02:09:41;;;;;;;6.82;4.00;;;17.10;96.00;;;;;;5046684;28;20076;-60
2022/05/10 02:12:16;;;;;;;7.30;3.83;;;17.10;96.70;;;;;;5047991;28;20095;-59
2022/05/10 02:15:05;;;;;;;9.27;4.28;;;17.00;96.10;;;;;;5031114;28;20123;-60
2022/05/10 02:17:46;;;;;;;10.98;4.95;;;17.00;96.60;;;;;;5032706;28;20084;-60
2022/05/10 02:20:30;;;;;;;17.42;5.35;;;17.00;96.70;;;;;;5047317;28;20510;-60
2022/05/10 02:23:04;;;;;;;6.35;3.75;;;17.10;96.60;;;;;;5047383;28;20507;-59
2022/05/10 02:25:37;;;;;;;6.78;4.68;;;17.00;96.30;;;;;;5046453;28;20088;-58
2022/05/10 02:28:38;;;;;;;10.88;5.32;;;17.00;96.60;;;;;;5047387;28;20087;-58
2022/05/10 02:31:09;;;;;;;10.75;4.40;;;16.90;96.60;;;;;;5039911;28;20488;-59
2022/05/10 02:33:35;;;;;;;9.57;4.78;;;16.90;96.50;;;;;;5045835;28;20067;-60
2022/05/10 02:36:02;;;;;;;7.10;4.00;;;16.90;96.60;;;;;;5029609;28;20067;-60
2022/05/10 02:38:31;;;;;;;8.60;4.78;;;16.90;96.50;;;;;;5043540;28;20132;-60
2022/05/10 02:40:59;;;;;;;13.95;4.72;;;16.90;96.70;;;;;;5047134;28;20076;-60
2022/05/10 02:43:32;;;;;;;7.35;5.28;;;16.80;96.70;;;;;;5047067;28;20637;-59
2022/05/10 02:45:59;;;;;;;15.02;5.57;;;16.80;97.10;;;;;;5047086;28;20076;-59
2022/05/10 02:48:31;;;;;;;11.75;5.07;;;16.80;96.80;;;;;;5047258;28;20048;-59
2022/05/10 02:50:58;;;;;;;7.35;4.65;;;16.80;97.00;;;;;;5047840;28;20080;-59
2022/05/10 02:53:25;;;;;;;13.48;5.40;;;16.80;96.80;;;;;;5046442;28;20569;-59
2022/05/10 02:55:57;;;;;;;7.57;4.88;;;16.70;96.90;;;;;;5047338;28;20468;-58
2022/05/10 02:58:47;;;;;;;8.02;4.85;;;16.70;97.30;;;;;;5046841;28;20106;-58
2022/05/10 03:01:26;;;;;;;12.27;5.47;;;16.70;97.70;;;;;;5045404;28;20083;-59
2022/05/10 03:03:53;;;;;;;10.05;4.80;;;16.70;97.40;;;;;;5046645;28;20076;-58
2022/05/10 03:06:21;;;;;;;9.77;5.30;;;16.70;96.90;;;;;;5046968;28;20131;-59
2022/05/10 03:08:48;;;;;;;9.45;5.07;;;16.70;97.10;;;;;;5046797;28;20076;-59
2022/05/10 03:11:15;;;;;;;9.35;5.85;;;16.60;97.00;;;;;;5047355;28;20080;-60
2022/05/10 03:13:43;;;;;;;7.63;4.80;;;16.60;96.80;;;;;;5046947;28;20132;-61
2022/05/10 03:16:10;;;;;;;6.88;4.03;;;16.70;96.80;;;;;;5047844;28;20482;-60
2022/05/10 03:18:37;;;;;;;8.30;4.78;;;16.70;96.70;;;;;;5046798;28;20049;-60
2022/05/10 03:21:03;;;;;;;6.65;4.10;;;16.70;96.50;;;;;;5046749;28;20567;-59
2022/05/10 03:23:30;;;;;;;8.02;3.95;;;16.70;96.20;;;;;;5046690;28;20068;-60
2022/05/10 03:25:57;;;;;;;6.82;3.75;;;16.60;95.90;;;;;;5044931;28;20076;-60
2022/05/10 03:28:24;;;;;;;7.55;3.75;;;16.70;95.30;;;;;;5020225;28;20040;-60
2022/05/10 03:30:51;;;;;;;4.20;2.97;;;16.70;95.20;;;;;;5046062;28;20483;-60
2022/05/10 03:33:18;;;;;;;5.60;3.15;;;16.70;94.60;;;;;;5046291;28;20063;-60
2022/05/10 03:35:44;;;;;;;8.25;4.18;;;16.60;94.50;;;;;;5046617;28;20079;-60
2022/05/10 03:38:11;;;;;;;5.68;3.08;;;16.60;94.40;;;;;;5046211;28;20136;-60
2022/05/10 03:40:38;;;;;;;5.13;2.55;;;16.60;94.20;;;;;;5046486;28;20037;-60
2022/05/10 03:43:07;;;;;;;4.60;2.72;;;16.60;94.40;;;;;;5046545;28;20130;-61
2022/05/10 03:45:33;;;;;;;11.55;3.03;;;16.50;93.70;;;;;;5045240;28;20338;-59
2022/05/10 03:48:00;;;;;;;5.65;3.33;;;16.50;93.90;;;;;;5046888;28;20049;-58
2022/05/10 03:50:27;;;;;;;5.80;3.10;;;16.50;93.80;;;;;;5045996;28;20131;-59
2022/05/10 03:52:54;;;;;;;9.10;3.58;;;16.40;93.80;;;;;;5045891;28;20056;-59
2022/05/10 03:55:23;;;;;;;5.68;3.45;;;16.50;93.80;;;;;;5048922;28;20092;-60
2022/05/10 03:57:51;;;;;;;7.07;3.72;;;16.40;93.80;;;;;;5049878;28;20127;-60
2022/05/10 04:00:20;;;;;;;8.63;3.17;;;16.30;93.90;;;;;;5050384;28;20127;-59
2022/05/10 04:02:46;;;;;;;10.25;3.92;;;16.40;93.90;;;;;;5045849;28;20134;-59
2022/05/10 04:05:14;;;;;;;7.82;4.03;;;16.30;93.90;;;;;;5042227;28;20064;-60
2022/05/10 04:07:40;;;;;;;11.77;3.95;;;16.30;94.00;;;;;;5050225;28;20148;-59
2022/05/10 04:10:08;;;;;;;6.55;3.35;;;16.30;94.10;;;;;;5050095;28;20572;-59
2022/05/10 04:12:38;;;;;;;5.25;3.17;;;16.20;94.10;;;;;;5050139;28;20080;-58
2022/05/10 04:15:09;;;;;;;6.68;3.22;;;16.20;94.30;;;;;;5049950;28;20600;-59
2022/05/10 04:17:36;;;;;;;7.07;3.33;;;16.20;94.10;;;;;;5050396;28;20742;-59
2022/05/10 04:20:06;;;;;;;4.55;3.00;;;16.20;94.20;;;;;;5049956;28;20535;-59
2022/05/10 04:22:33;;;;;;;6.15;3.00;;;16.10;94.20;;;;;;5042265;28;20642;-59
2022/05/10 04:25:13;;;;;;;3.92;2.83;;;16.10;94.10;;;;;;5049795;28;20082;-58
2022/05/10 04:27:39;;;;;;;5.43;2.60;;;16.10;94.10;;;;;;5049636;28;20587;-59
2022/05/10 04:30:07;;;;;;;8.90;3.78;;;16.00;94.00;;;;;;5049245;28;20087;-59
2022/05/10 04:32:36;;;;;;;5.38;3.05;;;16.00;94.10;;;;;;5049531;28;20062;-59
2022/05/10 04:35:03;;;;;;;5.63;3.10;;;15.90;94.10;;;;;;5050030;28;20094;-59
2022/05/10 04:37:31;;;;;;;7.03;2.80;;;15.90;94.00;;;;;;5049467;28;20143;-59
2022/05/10 04:42:44;;;;;;;4.07;2.33;;;15.90;94.00;;;;;;5049109;28;20124;-59
2022/05/10 04:45:14;;;;;;;7.43;2.90;;;15.90;93.90;;;;;;5049779;28;20595;-60
2022/05/10 04:47:41;;;;;;;7.55;2.67;;;15.90;94.00;;;;;;5048682;28;20708;-58
2022/05/10 04:50:09;;;;;;;5.72;3.05;;;15.90;93.90;;;;;;5049423;28;20132;-59
2022/05/10 04:52:36;;;;;;;9.80;3.63;;;15.90;94.00;;;;;;5049218;28;20132;-58
2022/05/10 04:55:03;;;;;;;5.05;3.38;;;15.80;94.10;;;;;;5049025;28;20521;-59
2022/05/10 04:57:30;;;;;;;10.65;4.40;;;15.80;94.20;;;;;;5048975;28;20502;-60
2022/05/10 04:59:57;;;;;;;5.25;3.17;;;15.80;94.20;;;;;;5047433;28;20059;-60
2022/05/10 05:02:24;;;;;;;6.88;3.47;;;15.80;94.20;;;;;;5048247;28;20044;-60
2022/05/10 05:04:50;;;;;;;10.60;3.78;;;15.80;94.20;;;;;;5049096;28;20053;-60
2022/05/10 05:07:17;;;;;;;9.57;3.88;;;15.70;94.30;;;;;;5048955;28;20519;-59
2022/05/10 05:09:44;;;;;;;7.57;2.83;;;15.60;94.40;;;;;;5049474;28;20077;-59
2022/05/10 05:12:11;;;;;;;6.03;3.25;;;15.60;94.30;;;;;;5048899;28;20507;-59
2022/05/10 05:14:38;;;;;;;9.07;3.25;;;15.70;94.20;;;;;;5049429;28;20083;-58
2022/05/10 05:17:05;;;;;;;9.70;3.53;;;15.70;94.10;;;;;;5048931;28;20045;-59
2022/05/10 05:19:32;;;;;;;5.82;3.47;;;15.70;94.00;;;;;;5049210;28;20523;-58
2022/05/10 05:21:59;;;;;;;11.43;3.42;;;15.70;93.90;;;;;;5048206;28;20083;-59
2022/05/10 05:24:27;;;;;;;4.55;3.00;;;15.70;94.00;;;;;;5044006;28;20072;-59
2022/05/10 05:26:54;;;;;;;4.88;3.30;;;15.70;93.80;;;;;;5048445;28;20067;-60
2022/05/10 05:29:21;;;;;;;7.30;2.97;;;15.70;93.80;;;;;;5049093;28;20128;-59
2022/05/10 05:31:49;;;;;;;5.35;3.13;;;15.70;94.20;;;;;;5048852;28;20090;-59
2022/05/10 05:34:16;;;;;;;4.78;3.13;;;15.70;94.00;;;;;;5048737;28;20471;-60
2022/05/10 05:36:43;;;;;;;8.30;3.30;;;15.70;94.00;;;;;;5048799;28;20048;-60
2022/05/10 05:39:09;;;;;;;6.93;3.35;;;15.70;94.00;;;;;;5047665;28;20492;-58
2022/05/10 05:41:36;;;;;;;8.23;3.25;;;15.70;94.00;;;;;;5048691;28;20094;-59
2022/05/10 05:44:04;;;;;;;6.57;3.47;;;15.60;94.10;;;;;;5048245;28;20079;-59
2022/05/10 05:46:30;;;;;;;6.45;3.60;;;15.70;94.20;;;;;;5048456;28;20111;-59
2022/05/10 05:48:59;;;;;;;5.22;2.75;;;15.60;94.10;;;;;;5048461;28;20134;-60
2022/05/10 05:51:26;;;;;;;5.30;3.35;;;15.60;94.30;;;;;;5048690;28;20124;-59
2022/05/10 05:53:53;;;;;;;8.70;3.42;;;15.60;94.30;;;;;;5041663;28;20103;-58
2022/05/10 05:56:20;;;;;;;10.52;3.72;;;15.60;94.20;;;;;;5047403;28;20487;-61
2022/05/10 05:58:48;;;;;;;6.40;3.53;;;15.60;94.30;;;;;;5048178;28;20080;-60
2022/05/10 06:01:15;;;;;;;5.72;3.20;;;15.60;94.60;;;;;;5048536;28;20475;-60
2022/05/10 06:03:42;;;;;;;6.65;3.45;;;15.60;94.60;;;;;;5048194;28;20056;-59
2022/05/10 06:06:10;;;;;;;7.38;3.33;;;15.60;94.70;;;;;;5048229;28;20080;-60
2022/05/10 06:08:43;;;;;;;5.47;3.17;;;15.60;94.60;;;;;;5047856;28;20037;-60
2022/05/10 06:11:10;;;;;;;5.05;3.47;;;15.70;94.60;;;;;;5046732;28;20132;-58
2022/05/10 06:13:37;;;;;;;8.18;4.65;;;15.60;95.00;;;;;;5047823;28;20072;-58
2022/05/10 06:16:07;;;;;;;6.75;3.85;;;15.60;94.70;;;;;;5047250;28;20092;-60
2022/05/10 06:18:34;;;;;;;10.02;3.65;;;15.60;95.10;;;;;;5045780;28;20041;-60
2022/05/10 06:21:01;;;;;;;9.93;4.07;;;15.70;94.90;;;;;;5047776;28;20053;-60
2022/05/10 06:23:28;;;;;;;6.75;4.10;;;15.80;94.80;;;;;;5047087;28;20045;-60
2022/05/10 06:25:55;;;;;;;6.57;4.22;;;15.70;94.90;;;;;;5047156;28;20049;-60
2022/05/10 06:28:22;;;;;;;8.13;4.38;;;15.70;95.00;;;;;;5048337;28;20049;-62
2022/05/10 06:30:49;;;;;;;10.05;4.45;;;15.70;95.50;;;;;;5034432;28;20128;-60
2022/05/10 06:33:16;;;;;;;10.32;4.57;;;15.80;95.80;;;;;;5037148;28;20041;-59
2022/05/10 06:35:44;;;;;;;9.15;4.70;;;15.80;95.70;;;;;;5045043;28;20080;-61
2022/05/10 06:38:19;;;;;;;8.50;4.90;;;15.70;96.30;;;;;;5040490;28;20080;-60
2022/05/10 06:40:47;;;;;;;12.68;5.60;;;15.70;96.10;;;;;;5046650;28;20095;-59
2022/05/10 06:43:13;;;;;;;12.40;5.90;;;15.70;96.50;;;;;;5044787;28;20091;-58
2022/05/10 06:45:40;;;;;;;11.52;5.18;;;15.60;96.40;;;;;;5043692;28;20543;-58
2022/05/10 06:48:08;;;;;;;13.10;6.00;;;15.70;97.00;;;;;;5044469;28;20132;-59
2022/05/10 06:50:36;;;;;;;16.00;6.00;;;15.70;96.70;;;;;;5041925;28;20076;-58
2022/05/10 06:53:03;;;;;;;9.25;5.32;;;15.70;97.20;;;;;;5044970;28;20045;-59
2022/05/10 06:55:31;;;;;;;9.40;5.88;;;15.70;97.30;;;;;;5042406;28;20044;-57
2022/05/10 06:57:58;;;;;;;8.77;5.35;;;15.70;98.10;;;;;;5045278;28;20049;-60
2022/05/10 07:00:33;;;;;;;13.88;6.03;;;15.70;97.00;;;;;;5045718;28;20049;-59
2022/05/10 07:03:09;;;;;;;7.97;5.35;;;15.60;98.10;;;;;;5043633;28;20044;-58
2022/05/10 07:05:35;;;;;;;9.40;6.30;;;15.70;98.20;;;;;;5045203;28;20063;-56
2022/05/10 07:08:02;;;;;;;7.55;4.85;;;15.80;97.50;;;;;;5045293;28;20190;-56
2022/05/10 07:10:31;;;;;;;9.40;5.63;;;15.70;98.20;;;;;;5045171;28;20471;-58
2022/05/10 07:12:58;;;;;;;9.70;5.75;;;15.60;97.90;;;;;;5044895;28;20129;-59
2022/05/10 07:15:25;;;;;;;13.52;6.05;;;15.70;98.00;;;;;;5045439;28;20488;-60
2022/05/10 07:17:52;;;;;;;6.20;5.10;;;15.60;98.50;;;;;;5043793;28;20087;-58
2022/05/10 07:20:19;;;;;;;9.73;5.65;;;15.60;98.30;;;;;;5043045;28;20125;-60
2022/05/10 07:22:46;;;;;;;11.95;6.40;;;15.60;98.60;;;;;;5045037;28;20041;-59
2022/05/10 07:25:18;;;;;;;15.68;6.32;;;15.60;98.80;;;;;;5045706;28;20824;-58
2022/05/10 07:27:45;;;;;;;11.95;6.15;;;15.60;99.10;;;;;;5045490;28;20558;-59
2022/05/10 07:30:13;;;;;;;10.85;6.18;;;15.50;99.20;;;;;;5027475;28;21532;-56
2022/05/10 07:32:41;;;;;;;14.65;5.80;;;15.60;98.90;;;;;;5041979;28;20072;-59
2022/05/10 07:35:08;;;;;;;9.90;6.45;;;15.70;99.20;;;;;;5045539;28;20470;-56
2022/05/10 07:37:35;;;;;;;12.48;5.72;;;15.70;99.30;;;;;;5045340;28;20181;-59
2022/05/10 07:40:03;;;;;;;10.93;5.93;;;15.70;99.90;;;;;;5045726;28;20128;-58
2022/05/10 07:42:30;;;;;;;10.55;6.18;;;15.70;99.90;;;;;;5046417;28;20044;-59
2022/05/10 07:44:57;;;;;;;10.88;5.40;;;15.50;99.90;;;;;;5046764;28;20049;-59
2022/05/10 07:47:24;;;;;;;15.30;5.53;;;15.60;99.90;;;;;;5046041;28;20415;-60
2022/05/10 07:49:50;;;;;;;11.73;4.90;;;15.60;99.60;;;;;;5045860;28;20120;-59
2022/05/10 07:52:17;;;;;;;12.35;5.53;;;15.60;99.90;;;;;;5045995;28;20076;-60
2022/05/10 07:54:44;;;;;;;10.32;5.18;;;15.60;99.90;;;;;;5045890;28;20127;-61
2022/05/10 07:57:11;;;;;;;12.30;5.68;;;15.70;99.90;;;;;;5045387;28;20393;-60
2022/05/10 07:59:37;;;;;;;9.95;5.15;;;15.70;99.80;;;;;;5046247;28;20492;-60
2022/05/10 08:02:05;;;;;;;11.80;4.82;;;15.70;99.90;;;;;;5045878;28;20076;-60
2022/05/10 08:04:32;;;;;;;13.35;4.80;;;15.70;99.90;;;;;;5046021;28;20091;-59
2022/05/10 08:06:59;;;;;;;7.20;4.80;;;15.70;99.90;;;;;;5046088;28;20539;-59
2022/05/10 08:09:26;;;;;;;6.85;4.35;;;15.70;99.90;;;;;;5045093;28;20106;-59
2022/05/10 08:11:53;;;;;;;8.40;4.35;;;15.60;99.90;;;;;;5044780;28;20093;-59
2022/05/10 08:14:19;;;;;;;10.85;5.22;;;15.60;99.90;;;;;;5044651;28;20336;-58
2022/05/10 08:16:46;;;;;;;12.20;4.50;;;15.60;99.90;;;;;;5043813;28;20045;-59
2022/05/10 08:19:13;;;;;;;15.48;5.28;;;15.70;99.90;;;;;;5044839;28;20064;-58
2022/05/10 08:21:40;;;;;;;9.95;4.93;;;15.70;99.90;;;;;;5044518;28;20108;-59
2022/05/10 08:24:07;;;;;;;14.13;3.97;;;15.60;99.90;;;;;;5044941;28;20256;-59
2022/05/10 08:26:34;;;;;;;9.20;3.95;;;15.70;99.90;;;;;;5045209;28;20091;-58
2022/05/10 08:29:01;;;;;;;11.82;4.40;;;15.90;99.90;;;;;;5045628;28;20057;-59
2022/05/10 08:31:28;;;;;;;4.97;3.53;;;16.00;99.90;;;;;;5028543;28;20068;-59
2022/05/10 08:33:55;;;;;;;7.75;3.67;;;16.00;99.90;;;;;;5045090;28;20552;-59
2022/05/10 08:36:22;;;;;;;10.73;4.60;;;16.10;99.90;;;;;;5045636;28;20044;-61
2022/05/10 08:38:49;;;;;;;8.43;3.50;;;16.20;99.90;;;;;;5045454;28;20442;-59
2022/05/10 08:41:54;;;;;;;8.43;3.90;;;16.20;99.90;;;;;;5040005;28;20072;-57
2022/05/10 08:44:23;;;;;;;8.70;3.42;;;16.30;99.90;;;;;;5049083;28;20144;-59
2022/05/10 08:47:06;;;;;;;7.80;3.05;;;16.10;99.90;;;;;;5048450;28;20045;-59
2022/05/10 08:49:34;;;;;;;6.05;3.15;;;16.10;99.90;;;;;;5041973;28;20106;-59
2022/05/10 08:52:01;;;;;;;12.00;3.70;;;16.20;99.90;;;;;;5049415;28;20049;-58
2022/05/10 08:54:29;;;;;;;7.93;3.65;;;16.20;99.90;;;;;;5048785;28;20068;-59
2022/05/10 08:57:38;;;;;;;6.32;3.13;;;16.20;99.90;;;;;;5031157;28;20148;-59
2022/05/10 09:00:13;;;;;;;9.85;3.22;;;16.20;99.90;;;;;;5006208;28;20049;-59
2022/05/10 09:02:41;;;;;;;16.80;4.13;;;16.20;99.90;;;;;;5048748;28;20076;-59
2022/05/10 09:05:31;;;;;;;9.27;4.75;;;16.20;99.90;;;;;;5049223;28;20077;-59
2022/05/10 09:08:04;;;;;;;9.73;2.55;;;16.30;99.90;;;;;;5049649;28;20143;-59
2022/05/10 09:10:37;;;;;;;5.32;2.92;;;16.30;99.90;;;;;;5047923;28;20128;-59
2022/05/10 09:13:06;;;;;;;6.85;3.03;;;16.10;99.90;;;;;;5047933;28;20045;-58
2022/05/10 09:15:46;;;;;;;8.65;2.65;;;16.10;99.90;;;;;;5047879;28;20069;-57
2022/05/10 09:18:20;;;;;;;6.60;3.17;;;16.20;99.90;;;;;;5046888;28;20045;-59
2022/05/10 09:20:58;;;;;;;6.43;3.00;;;16.30;99.90;;;;;;5028137;28;20502;-60
2022/05/10 09:23:29;;;;;;;9.85;2.88;;;16.30;99.90;;;;;;5046943;28;20141;-60
2022/05/10 09:25:56;;;;;;;7.15;2.33;;;16.20;99.90;;;;;;5048446;28;20588;-60
2022/05/10 09:28:32;;;;;;;6.43;2.88;;;16.20;99.90;;;;;;5049083;28;20163;-59
2022/05/10 09:34:46;;;;;;;6.18;3.10;;;16.40;99.90;;;;;;5041575;28;20045;-59
2022/05/10 09:37:45;;;;;;;8.38;2.83;;;16.30;99.90;;;;;;5048368;28;20045;-57
2022/05/10 09:40:12;;;;;;;5.53;2.30;;;16.30;99.90;;;;;;5031283;28;20106;-59
2022/05/10 09:42:44;;;;;;;8.77;2.53;;;16.40;99.90;;;;;;4697456;27;10000691;-58
2022/05/10 09:45:18;;;;;;;8.30;3.47;;;16.50;99.90;;;;;;5041622;28;20073;-59
2022/05/10 09:48:09;;;;;;;6.60;2.40;;;16.50;99.90;;;;;;5043609;28;20123;-58
2022/05/10 09:50:57;;;;;;;6.20;3.10;;;16.60;99.90;;;;;;5036105;28;20488;-60
2022/05/10 09:53:28;;;;;;;4.15;2.10;;;16.60;99.90;;;;;;5042500;28;20048;-59
2022/05/10 09:55:57;;;;;;;7.78;3.42;;;16.70;99.90;;;;;;5025570;28;20083;-58
2022/05/10 09:58:28;;;;;;;9.77;2.85;;;16.60;99.90;;;;;;5043980;28;20474;-57
2022/05/10 10:00:56;;;;;;;11.02;2.42;;;16.60;99.90;;;;;;5041973;28;20053;-58
2022/05/10 10:03:32;;;;;;;7.07;2.35;;;16.70;99.90;;;;;;5042469;28;20045;-59
2022/05/10 10:06:18;;;;;;;4.80;2.30;;;16.80;99.90;;;;;;5043036;28;20706;-59
2022/05/10 10:08:53;;;;;;;7.72;2.00;;;16.80;99.90;;;;;;5043825;28;20064;-59
2022/05/10 10:11:32;;;;;;;8.30;2.78;;;16.90;99.90;;;;;;5041787;28;20176;-59
2022/05/10 10:14:12;;;;;;;5.90;2.58;;;17.00;99.90;;;;;;5042549;28;20092;-59
2022/05/10 10:16:52;;;;;;;4.53;2.17;;;17.20;99.90;;;;;;5041778;28;20080;-59
2022/05/10 10:19:22;;;;;;;5.25;2.38;;;17.30;99.90;;;;;;5042919;28;20126;-60
2022/05/10 10:21:59;;;;;;;8.30;3.10;;;17.30;99.90;;;;;;5042820;28;20151;-59
2022/05/10 10:24:33;;;;;;;5.68;2.50;;;17.40;99.90;;;;;;5042189;28;20044;-59
2022/05/10 10:27:06;;;;;;;8.90;4.65;;;17.50;99.90;;;;;;5039586;28;20079;-59
2022/05/10 10:29:40;;;;;;;11.43;4.60;;;17.60;99.90;;;;;;5025929;28;20040;-60
2022/05/10 10:32:24;;;;;;;10.32;2.65;;;17.70;99.90;;;;;;5041922;28;20049;-59
2022/05/10 10:35:04;;;;;;;13.05;2.13;;;17.70;99.90;;;;;;5041779;28;20073;-60
2022/05/10 10:37:42;;;;;;;3.45;1.88;;;17.80;99.90;;;;;;5042535;28;20143;-58
2022/05/10 10:40:39;;;;;;;3.13;1.90;;;17.90;99.90;;;;;;5040536;28;20070;-57
2022/05/10 10:43:14;;;;;;;7.85;2.53;;;17.90;99.70;;;;;;5042618;28;20164;-59
2022/05/10 10:45:43;;;;;;;4.50;2.30;;;17.90;99.90;;;;;;5044279;28;20041;-60
2022/05/10 10:48:34;;;;;;;4.88;2.65;;;17.60;99.90;;;;;;5043731;28;20056;-58
2022/05/10 10:51:00;;;;;;;3.70;2.40;;;17.70;99.90;;;;;;5044178;28;20866;-60
2022/05/10 10:53:28;;;;;;;7.38;2.30;;;17.70;99.90;;;;;;5042663;28;20051;-59
2022/05/10 10:56:24;;;;;;;6.32;2.70;;;17.70;99.90;;;;;;5042301;28;20167;-59
2022/05/10 10:59:06;;;;;;;9.63;2.58;;;17.80;99.90;;;;;;5038873;28;20132;-64
2022/05/10 11:02:06;;;;;;;5.45;2.33;;;17.70;99.90;;;;;;5026947;28;20132;-59
2022/05/10 11:04:59;;;;;;;8.63;3.35;;;17.60;99.90;;;;;;5019590;28;20049;-58
2022/05/10 11:07:33;;;;;;;5.80;2.33;;;17.40;99.90;;;;;;5026649;28;20037;-59
2022/05/10 11:10:00;;;;;;;5.78;2.90;;;17.30;99.90;;;;;;5040107;28;20811;-59
2022/05/10 11:12:39;;;;;;;7.90;2.95;;;17.30;99.90;;;;;;5043164;28;20143;-59
2022/05/10 11:15:18;;;;;;;7.10;2.72;;;17.20;99.90;;;;;;5040740;28;20128;-59
2022/05/10 11:18:30;;;;;;;3.88;2.42;;;17.30;99.90;;;;;;5042079;28;20053;-59
2022/05/10 11:21:19;;;;;;;10.10;3.45;;;17.40;99.90;;;;;;5041591;28;20049;-60
2022/05/10 11:24:07;;;;;;;5.05;2.58;;;17.50;99.90;;;;;;5041695;28;20076;-59
2022/05/10 11:26:33;;;;;;;6.10;2.00;;;17.50;99.90;;;;;;5042601;28;20053;-62
2022/05/10 11:29:25;;;;;;;3.58;2.20;;;17.50;99.90;;;;;;5043119;28;20801;-59
2022/05/10 11:32:37;;;;;;;4.38;2.00;;;17.20;99.90;;;;;;5041776;28;20052;-59
2022/05/10 11:35:49;;;;;;;8.10;2.00;;;16.90;99.90;;;;;;5029960;28;20137;-58
2022/05/10 11:38:45;;;;;;;3.38;2.05;;;16.90;99.90;;;;;;5039593;28;20076;-60
2022/05/10 11:41:50;;;;;;;6.85;2.33;;;16.90;99.90;;;;;;5041034;28;20188;-60
2022/05/10 11:44:35;;;;;;;6.03;2.58;;;16.90;99.90;;;;;;5040488;28;20084;-59
2022/05/10 11:47:20;;;;;;;5.65;2.50;;;16.80;99.90;;;;;;5042307;28;20106;-58
2022/05/10 11:50:06;;;;;;;6.10;2.22;;;16.70;99.90;;;;;;5043382;28;20049;-60
2022/05/10 11:52:53;;;;;;;6.07;2.15;;;16.50;99.90;;;;;;5043869;28;20045;-60
2022/05/10 11:55:31;;;;;;;9.15;2.75;;;16.60;99.90;;;;;;5040360;28;20102;-60
2022/05/10 11:58:00;;;;;;;7.78;2.75;;;16.60;99.90;;;;;;5038986;28;20173;-59
2022/05/10 12:00:27;;;;;;;6.65;3.20;;;16.60;99.90;;;;;;5034214;28;20136;-59
2022/05/10 12:02:54;;;;;;;5.97;2.67;;;16.60;99.90;;;;;;5041906;28;20048;-61
2022/05/10 12:05:25;;;;;;;8.70;3.35;;;16.40;99.90;;;;;;5041544;28;20049;-58
2022/05/10 12:07:54;;;;;;;6.60;3.33;;;16.30;99.90;;;;;;5042723;28;20460;-58
2022/05/10 12:10:33;;;;;;;5.63;3.28;;;16.20;99.90;;;;;;5025329;28;20522;-58
2022/05/10 12:13:02;;;;;;;7.70;4.30;;;16.10;99.90;;;;;;5043099;28;20099;-58
2022/05/10 12:21:26;;;;;;;5.13;3.20;;;16.20;99.90;;;;;;5049854;28;20084;-59
2022/05/10 12:24:12;;;;;;;5.25;3.03;;;16.40;99.90;;;;;;5043622;28;20123;-59
2022/05/10 12:26:43;;;;;;;6.10;3.92;;;16.50;99.90;;;;;;5048077;28;20075;-58
2022/05/10 12:29:34;;;;;;;9.73;3.55;;;16.70;99.90;;;;;;5047104;28;20515;-58
2022/05/10 12:32:05;;;;;;;6.45;3.47;;;16.80;99.90;;;;;;5039789;28;20045;-57
2022/05/10 12:34:56;;;;;;;8.32;3.35;;;17.00;99.90;;;;;;5046133;28;20771;-58
2022/05/10 12:37:29;;;;;;;12.52;4.00;;;17.10;99.90;;;;;;5046527;28;20048;-57
2022/05/10 12:40:08;;;;;;;7.10;3.70;;;17.40;99.90;;;;;;5046595;28;20077;-58
2022/05/10 12:42:40;;;;;;;6.72;3.22;;;17.60;99.90;;;;;;5048202;28;20464;-57
2022/05/10 12:45:41;;;;;;;8.90;3.90;;;17.70;99.90;;;;;;5030981;28;20045;-57
2022/05/10 12:48:44;;;;;;;5.15;3.33;;;18.00;99.90;;;;;;5049201;28;20037;-59
2022/05/10 12:51:45;;;;;;;9.38;3.53;;;18.20;99.90;;;;;;5049607;28;20139;-60
2022/05/10 12:54:24;;;;;;;5.78;3.35;;;18.40;99.90;;;;;;5047904;28;20060;-59
2022/05/10 12:57:08;;;;;;;11.02;4.25;;;18.50;99.90;;;;;;5045576;28;20080;-62
2022/05/10 12:59:50;;;;;;;4.68;2.92;;;18.50;99.90;;;;;;5047917;28;20037;-58
2022/05/10 13:02:17;;;;;;;3.60;2.88;;;18.40;99.90;;;;;;5049092;28;20060;-57
2022/05/10 13:04:49;;;;;;;4.55;3.28;;;18.50;99.90;;;;;;5048203;28;20051;-57
2022/05/10 13:07:54;;;;;;;4.90;3.22;;;18.50;99.90;;;;;;5049264;28;20106;-57
2022/05/10 13:10:21;;;;;;;7.15;3.17;;;18.80;99.90;;;;;;5047236;28;20051;-58
2022/05/10 13:12:58;;;;;;;6.50;3.60;;;19.10;99.90;;;;;;5048939;28;20077;-57
2022/05/10 13:15:26;;;;;;;5.60;3.50;;;19.40;99.60;;;;;;5031616;28;20072;-59
2022/05/10 13:17:58;;;;;;;4.10;3.10;;;19.40;99.60;;;;;;5047785;28;20129;-59
2022/05/10 13:20:27;;;;;;;5.20;3.40;;;19.20;99.10;;;;;;5031304;28;20055;-59
2022/05/10 13:22:56;;;;;;;8.05;3.97;;;19.40;99.30;;;;;;5049093;28;20122;-59
2022/05/10 13:25:30;;;;;;;7.95;3.45;;;19.60;99.20;;;;;;5048957;28;20304;-59
2022/05/10 13:28:08;;;;;;;8.65;3.22;;;19.80;98.20;;;;;;5047417;28;20212;-59
2022/05/10 13:30:35;;;;;;;4.63;2.97;;;19.90;97.30;;;;;;5049203;28;20244;-56
2022/05/10 13:33:02;;;;;;;9.02;4.25;;;19.80;96.70;;;;;;5043618;28;20069;-58